Time;durP1;ratioP1;P1;durP2;ratioP2;P2;SDS_P1;SDS_P2;PMS_P1;PMS_P2;Temp;Humidity;BMP_temperature;BMP_pressure;BME280_temperature;BME280_humidity;BME280_pressure;Samples;Min_cycle;Max_cycle;Signal;HPM_P1;HPM_P2
2023/09/21 00:01:25;;;;;;;;;;;18.00;99.90;;;;;;7317437;19;9157;-76
2023/09/21 00:03:57;;;;;;;;;;;18.00;99.90;;;;;;7313999;19;9217;-77
2023/09/21 00:06:49;;;;;;;;;;;18.00;99.90;;;;;;7318502;19;10479;-77
2023/09/21 00:09:20;;;;;;;;;;;18.00;99.90;;;;;;7318527;19;9428;-76
2023/09/21 00:11:49;;;;;;;;;;;18.00;99.90;;;;;;7319123;19;9164;-76
2023/09/21 00:14:38;;;;;;;;;;;17.90;99.90;;;;;;7317037;19;9164;-76
2023/09/21 00:17:08;;;;;;;;;;;17.90;99.90;;;;;;7319255;19;9299;-76
2023/09/21 00:19:40;;;;;;;;;;;17.90;99.90;;;;;;7319406;19;9290;-76
2023/09/21 00:22:11;;;;;;;;;;;18.00;99.90;;;;;;7324620;19;9230;-76
2023/09/21 00:25:00;;;;;;;;;;;18.00;99.90;;;;;;7321035;19;9505;-76
2023/09/21 00:27:49;;;;;;;;;;;17.90;99.90;;;;;;7322538;19;9615;-76
2023/09/21 00:30:18;;;;;;;;;;;17.90;99.90;;;;;;7320807;19;10757;-76
2023/09/21 00:33:08;;;;;;;;;;;17.90;99.90;;;;;;7316224;19;9257;-76
2023/09/21 00:35:40;;;;;;;;;;;17.90;99.90;;;;;;7324963;19;9231;-76
2023/09/21 00:38:10;;;;;;;;;;;17.90;99.90;;;;;;7324339;19;9223;-76
2023/09/21 00:41:00;;;;;;;;;;;17.90;99.90;;;;;;7320774;19;9618;-76
2023/09/21 00:43:30;;;;;;;;;;;17.90;99.90;;;;;;7326007;19;9159;-76
2023/09/21 00:46:04;;;;;;;;;;;17.90;99.90;;;;;;7325842;19;10070;-76
2023/09/21 00:48:38;;;;;;;;;;;17.90;99.90;;;;;;7321853;19;8944;-76
2023/09/21 00:51:12;;;;;;;;;;;17.80;99.90;;;;;;7319581;19;9296;-76
2023/09/21 00:53:44;;;;;;;;;;;17.80;99.90;;;;;;7324586;19;9292;-76
2023/09/21 00:56:33;;;;;;;;;;;17.80;99.90;;;;;;7320522;19;9663;-76
2023/09/21 00:59:05;;;;;;;;;;;17.80;99.90;;;;;;7323918;19;9656;-76
2023/09/21 01:01:38;;;;;;;;;;;17.80;99.90;;;;;;7325180;19;9000;-76
2023/09/21 01:04:08;;;;;;;;;;;17.80;99.90;;;;;;7321445;19;12101;-76
2023/09/21 01:06:41;;;;;;;;;;;17.80;99.90;;;;;;7325322;19;9395;-76
2023/09/21 01:09:13;;;;;;;;;;;17.90;99.90;;;;;;7324225;19;9194;-76
2023/09/21 01:11:42;;;;;;;;;;;17.80;99.90;;;;;;7321784;19;11154;-76
2023/09/21 01:14:11;;;;;;;;;;;17.90;99.90;;;;;;7323006;19;9164;-76
2023/09/21 01:17:00;;;;;;;;;;;17.90;99.90;;;;;;7322839;19;10337;-76
2023/09/21 01:19:29;;;;;;;;;;;17.90;99.90;;;;;;7323707;19;9484;-76
2023/09/21 01:22:13;;;;;;;;;;;17.90;99.90;;;;;;7323652;19;8944;-76
2023/09/21 01:24:47;;;;;;;;;;;18.00;99.90;;;;;;7322513;19;9270;-77
2023/09/21 01:27:37;;;;;;;;;;;17.90;99.90;;;;;;7320680;19;10245;-77
2023/09/21 01:30:11;;;;;;;;;;;17.90;99.90;;;;;;7325310;19;9270;-76
2023/09/21 01:33:03;;;;;;;;;;;17.80;99.90;;;;;;7315509;19;9230;-76
2023/09/21 01:35:53;;;;;;;;;;;17.80;99.90;;;;;;7321705;19;10542;-76
2023/09/21 01:38:27;;;;;;;;;;;17.80;99.90;;;;;;7324893;19;8944;-77
2023/09/21 01:41:00;;;;;;;;;;;17.80;99.90;;;;;;7320841;19;11235;-76
2023/09/21 01:43:30;;;;;;;;;;;17.80;99.90;;;;;;7322623;19;9658;-76
2023/09/21 01:46:21;;;;;;;;;;;17.90;99.90;;;;;;7317400;19;9432;-76
2023/09/21 01:48:51;;;;;;;;;;;17.90;99.90;;;;;;7323757;19;9369;-76
2023/09/21 01:51:20;;;;;;;;;;;17.80;99.90;;;;;;7324150;19;9439;-77
2023/09/21 01:53:49;;;;;;;;;;;17.90;99.90;;;;;;7323217;19;9531;-76
2023/09/21 01:56:21;;;;;;;;;;;17.90;99.90;;;;;;7322245;19;9182;-76
2023/09/21 01:58:50;;;;;;;;;;;17.90;99.90;;;;;;7322756;19;10463;-76
2023/09/21 02:01:19;;;;;;;;;;;17.90;99.90;;;;;;7323301;19;8944;-76
2023/09/21 02:03:48;;;;;;;;;;;17.90;99.90;;;;;;7318787;19;9341;-77
2023/09/21 02:06:17;;;;;;;;;;;17.80;99.90;;;;;;7324184;19;9226;-76
2023/09/21 02:09:09;;;;;;;;;;;17.80;99.90;;;;;;7321847;19;10944;-76
2023/09/21 02:12:01;;;;;;;;;;;17.80;99.90;;;;;;7322924;19;9476;-76
2023/09/21 02:14:50;;;;;;;;;;;17.80;99.90;;;;;;7318477;19;9539;-77
2023/09/21 02:17:23;;;;;;;;;;;17.70;99.90;;;;;;7324309;19;8944;-76
2023/09/21 02:19:53;;;;;;;;;;;17.70;99.90;;;;;;7321346;19;9483;-77
2023/09/21 02:22:42;;;;;;;;;;;17.70;99.90;;;;;;7321677;19;9290;-76
2023/09/21 02:25:34;;;;;;;;;;;17.70;99.90;;;;;;7320170;19;9240;-77
2023/09/21 02:28:09;;;;;;;;;;;17.70;99.90;;;;;;7321483;19;9514;-76
2023/09/21 02:31:03;;;;;;;;;;;17.60;99.90;;;;;;7320259;19;9266;-77
2023/09/21 02:33:34;;;;;;;;;;;17.50;99.90;;;;;;7317533;19;9358;-76
2023/09/21 02:36:22;;;;;;;;;;;17.60;99.90;;;;;;7318250;19;9527;-76
2023/09/21 02:38:51;;;;;;;;;;;17.60;99.90;;;;;;7323848;19;9227;-76
2023/09/21 02:41:21;;;;;;;;;;;17.50;99.90;;;;;;7323512;19;8945;-76
2023/09/21 02:43:54;;;;;;;;;;;17.50;99.90;;;;;;7318556;19;10330;-76
2023/09/21 02:46:23;;;;;;;;;;;17.60;99.90;;;;;;7321565;19;9328;-76
2023/09/21 02:48:52;;;;;;;;;;;17.60;99.90;;;;;;7320987;19;10913;-76
2023/09/21 02:51:41;;;;;;;;;;;17.60;99.90;;;;;;7320166;19;8962;-77
2023/09/21 02:54:32;;;;;;;;;;;17.60;99.90;;;;;;7320817;19;9188;-76
2023/09/21 02:57:02;;;;;;;;;;;17.60;99.90;;;;;;7321199;19;9474;-76
2023/09/21 02:59:35;;;;;;;;;;;17.70;99.90;;;;;;7320464;19;9541;-76
2023/09/21 03:02:04;;;;;;;;;;;17.70;99.90;;;;;;7317941;19;9129;-76
2023/09/21 03:04:33;;;;;;;;;;;17.70;99.90;;;;;;7320318;19;9492;-76
2023/09/21 03:07:22;;;;;;;;;;;17.70;99.90;;;;;;7320105;19;9206;-76
2023/09/21 03:09:51;;;;;;;;;;;17.70;99.90;;;;;;7322023;19;9325;-76
2023/09/21 03:12:20;;;;;;;;;;;17.80;99.90;;;;;;7321138;19;11442;-76
2023/09/21 03:14:51;;;;;;;;;;;17.90;99.90;;;;;;7321757;19;9224;-76
2023/09/21 03:17:20;;;;;;;;;;;17.80;99.90;;;;;;7319817;19;9218;-76
2023/09/21 03:19:49;;;;;;;;;;;17.80;99.90;;;;;;7321417;19;9292;-77
2023/09/21 03:22:19;;;;;;;;;;;17.90;99.90;;;;;;7320446;19;10416;-77
2023/09/21 03:24:48;;;;;;;;;;;17.90;99.90;;;;;;7321675;19;9479;-77
2023/09/21 03:27:17;;;;;;;;;;;17.90;99.90;;;;;;7318101;19;9308;-76
2023/09/21 03:30:11;;;;;;;;;;;18.00;99.90;;;;;;7319278;19;9498;-76
2023/09/21 03:32:42;;;;;;;;;;;18.00;99.90;;;;;;7317396;19;9181;-76
2023/09/21 03:35:11;;;;;;;;;;;18.10;99.90;;;;;;7320000;19;9233;-76
2023/09/21 03:37:43;;;;;;;;;;;18.10;99.90;;;;;;7323050;19;9418;-76
2023/09/21 03:40:13;;;;;;;;;;;18.10;99.90;;;;;;7321787;19;9376;-76
2023/09/21 03:43:02;;;;;;;;;;;18.10;99.90;;;;;;7321881;19;9241;-77
2023/09/21 03:45:34;;;;;;;;;;;18.10;99.90;;;;;;7323679;19;9189;-77
2023/09/21 03:48:04;;;;;;;;;;;18.10;99.90;;;;;;7323706;19;9260;-76
2023/09/21 03:50:55;;;;;;;;;;;18.10;99.90;;;;;;7320584;19;9637;-76
2023/09/21 03:53:44;;;;;;;;;;;18.10;99.90;;;;;;7317785;19;9235;-76
2023/09/21 03:56:35;;;;;;;;;;;18.10;99.90;;;;;;7323551;19;9274;-76
2023/09/21 03:59:06;;;;;;;;;;;18.00;99.90;;;;;;7325528;19;9888;-76
2023/09/21 04:01:38;;;;;;;;;;;18.00;99.90;;;;;;7327393;19;9073;-76
2023/09/21 04:04:17;;;;;;;;;;;18.00;99.90;;;;;;7322564;19;9611;-76
2023/09/21 04:07:07;;;;;;;;;;;17.90;99.90;;;;;;7322413;19;9262;-76
2023/09/21 04:09:56;;;;;;;;;;;17.90;99.90;;;;;;7324037;19;9242;-76
2023/09/21 04:12:25;;;;;;;;;;;17.90;99.90;;;;;;7323782;19;9273;-76
2023/09/21 04:15:14;;;;;;;;;;;18.00;99.90;;;;;;7326058;19;9246;-76
2023/09/21 04:17:47;;;;;;;;;;;18.00;99.90;;;;;;7326508;19;9431;-76
2023/09/21 04:20:18;;;;;;;;;;;18.00;99.90;;;;;;7323377;19;9901;-76
2023/09/21 04:22:49;;;;;;;;;;;18.00;99.90;;;;;;7325975;19;9238;-76
2023/09/21 04:25:19;;;;;;;;;;;18.00;99.90;;;;;;7326788;19;9259;-76
2023/09/21 04:27:53;;;;;;;;;;;18.00;99.90;;;;;;7323168;19;9586;-76
2023/09/21 04:30:24;;;;;;;;;;;18.00;99.90;;;;;;7322812;19;9494;-76
2023/09/21 04:32:57;;;;;;;;;;;18.10;99.90;;;;;;7322017;19;9686;-77
2023/09/21 04:35:26;;;;;;;;;;;18.10;99.90;;;;;;7323617;19;10627;-76
2023/09/21 04:37:58;;;;;;;;;;;18.10;99.90;;;;;;7323924;19;9238;-76
2023/09/21 04:40:48;;;;;;;;;;;18.10;99.90;;;;;;7323309;19;10506;-76
2023/09/21 04:43:39;;;;;;;;;;;18.00;99.90;;;;;;7323967;19;9439;-76
2023/09/21 04:46:09;;;;;;;;;;;18.00;99.90;;;;;;7324487;19;9240;-76
2023/09/21 04:49:01;;;;;;;;;;;18.00;99.90;;;;;;7322477;19;9444;-76
2023/09/21 04:51:50;;;;;;;;;;;18.00;99.90;;;;;;7324488;19;9217;-77
2023/09/21 04:54:39;;;;;;;;;;;18.00;99.90;;;;;;7322888;19;9330;-76
2023/09/21 04:57:08;;;;;;;;;;;18.00;99.90;;;;;;7322658;19;9396;-76
2023/09/21 04:59:38;;;;;;;;;;;17.90;99.90;;;;;;7323744;19;9174;-76
2023/09/21 05:02:28;;;;;;;;;;;17.90;99.90;;;;;;7315484;19;9511;-76
2023/09/21 05:04:59;;;;;;;;;;;17.80;99.90;;;;;;7316530;19;9249;-77
2023/09/21 05:07:29;;;;;;;;;;;17.70;99.90;;;;;;7320491;19;9515;-76
2023/09/21 05:10:17;;;;;;;;;;;17.70;99.90;;;;;;7316447;19;9513;-76
2023/09/21 05:12:49;;;;;;;;;;;17.60;99.90;;;;;;7322575;19;9418;-76
2023/09/21 05:15:40;;;;;;;;;;;17.50;99.90;;;;;;7318106;19;9278;-76
2023/09/21 05:18:09;;;;;;;;;;;17.40;99.90;;;;;;7322971;19;9552;-76
2023/09/21 05:21:01;;;;;;;;;;;17.30;99.90;;;;;;7319618;19;9209;-76
2023/09/21 05:23:50;;;;;;;;;;;17.30;99.90;;;;;;7322167;19;9505;-75
2023/09/21 05:26:39;;;;;;;;;;;17.30;99.90;;;;;;7317969;19;9174;-76
2023/09/21 05:29:08;;;;;;;;;;;17.20;99.90;;;;;;7322484;19;10678;-76
2023/09/21 05:31:37;;;;;;;;;;;17.20;99.90;;;;;;7322739;19;9289;-76
2023/09/21 05:34:06;;;;;;;;;;;17.10;99.90;;;;;;7319967;19;9593;-76
2023/09/21 05:36:58;;;;;;;;;;;17.10;99.90;;;;;;7318336;19;9173;-76
2023/09/21 05:39:27;;;;;;;;;;;17.10;99.90;;;;;;7322493;19;9407;-76
2023/09/21 05:41:58;;;;;;;;;;;17.10;99.90;;;;;;7324636;19;9235;-77
2023/09/21 05:44:28;;;;;;;;;;;17.20;99.90;;;;;;7322691;19;9274;-76
2023/09/21 05:46:57;;;;;;;;;;;17.20;99.90;;;;;;7320693;19;10474;-77
2023/09/21 05:49:27;;;;;;;;;;;17.20;99.90;;;;;;7319197;19;9371;-76
2023/09/21 05:52:19;;;;;;;;;;;17.30;99.90;;;;;;7320863;19;9359;-77
2023/09/21 05:54:48;;;;;;;;;;;17.30;99.90;;;;;;7322285;19;9461;-76
2023/09/21 05:57:39;;;;;;;;;;;17.40;99.90;;;;;;7322934;19;9177;-82
2023/09/21 06:00:10;;;;;;;;;;;17.50;99.90;;;;;;7324115;19;11749;-80
2023/09/21 06:02:59;;;;;;;;;;;17.60;99.90;;;;;;7318533;19;9985;-76
2023/09/21 06:05:29;;;;;;;;;;;17.60;99.90;;;;;;7323377;19;9502;-79
2023/09/21 06:08:01;;;;;;;;;;;17.70;99.90;;;;;;7319820;19;9238;-73
2023/09/21 06:10:50;;;;;;;;;;;17.80;99.90;;;;;;7319776;19;9252;-73
2023/09/21 06:13:39;;;;;;;;;;;18.00;99.90;;;;;;7315059;19;9451;-70
2023/09/21 06:16:08;;;;;;;;;;;18.20;99.90;;;;;;7321699;19;9128;-69
2023/09/21 06:18:37;;;;;;;;;;;18.30;99.90;;;;;;7319315;19;9201;-69
2023/09/21 06:21:06;;;;;;;;;;;18.50;99.90;;;;;;7316363;19;9130;-68
2023/09/21 06:23:38;;;;;;;;;;;18.50;99.90;;;;;;7317882;19;9182;-74
2023/09/21 06:26:27;;;;;;;;;;;18.50;99.90;;;;;;7310847;19;9711;-73
2023/09/21 06:28:56;;;;;;;;;;;18.50;99.90;;;;;;7318717;19;9155;-73
2023/09/21 06:31:24;;;;;;;;;;;18.50;99.90;;;;;;7321859;19;9113;-74
2023/09/21 06:33:57;;;;;;;;;;;18.60;99.90;;;;;;7315857;19;9120;-73
2023/09/21 06:36:46;;;;;;;;;;;18.60;99.90;;;;;;7318238;19;9578;-74
2023/09/21 06:39:18;;;;;;;;;;;18.60;99.90;;;;;;7318405;19;9437;-73
2023/09/21 06:41:47;;;;;;;;;;;18.70;99.90;;;;;;7320760;19;9537;-73
2023/09/21 06:44:18;;;;;;;;;;;18.80;99.90;;;;;;7316107;19;9313;-73
2023/09/21 06:47:07;;;;;;;;;;;18.90;99.90;;;;;;7318152;19;9500;-74
2023/09/21 06:49:57;;;;;;;;;;;19.00;99.90;;;;;;7318020;19;8988;-74
2023/09/21 06:52:45;;;;;;;;;;;19.20;99.90;;;;;;7319469;19;9604;-73
2023/09/21 06:55:37;;;;;;;;;;;19.20;99.90;;;;;;7317360;19;9190;-73
2023/09/21 06:58:27;;;;;;;;;;;19.30;99.90;;;;;;7318352;19;9314;-74
2023/09/21 07:00:56;;;;;;;;;;;19.30;99.90;;;;;;7319864;19;9265;-74
2023/09/21 07:03:44;;;;;;;;;;;19.40;99.90;;;;;;7317245;19;9270;-74
2023/09/21 07:06:35;;;;;;;;;;;19.40;99.90;;;;;;7320509;19;9333;-74
2023/09/21 07:09:04;;;;;;;;;;;19.50;99.90;;;;;;7319246;19;9203;-74
2023/09/21 07:11:35;;;;;;;;;;;19.60;99.90;;;;;;7319536;19;9305;-74
2023/09/21 07:14:05;;;;;;;;;;;19.60;99.90;;;;;;7321007;19;9119;-74
2023/09/21 07:16:34;;;;;;;;;;;19.60;99.90;;;;;;7321697;19;9729;-73
2023/09/21 07:19:23;;;;;;;;;;;19.60;99.90;;;;;;7315992;19;11635;-74
2023/09/21 07:21:53;;;;;;;;;;;19.60;99.90;;;;;;7317695;19;10329;-74
2023/09/21 07:24:22;;;;;;;;;;;19.50;99.90;;;;;;7318914;19;9415;-74
2023/09/21 07:27:14;;;;;;;;;;;19.50;99.90;;;;;;7320072;19;9254;-74
2023/09/21 07:29:44;;;;;;;;;;;19.60;99.90;;;;;;7319436;19;9245;-74
2023/09/21 07:32:13;;;;;;;;;;;19.60;99.90;;;;;;7318177;19;9253;-74
2023/09/21 07:34:42;;;;;;;;;;;19.60;99.90;;;;;;7315126;19;9249;-74
2023/09/21 07:37:12;;;;;;;;;;;19.70;99.90;;;;;;7318710;19;9540;-75
2023/09/21 07:39:41;;;;;;;;;;;19.80;99.90;;;;;;7318327;19;9437;-74
2023/09/21 07:42:33;;;;;;;;;;;19.70;99.90;;;;;;7316890;19;9410;-74
2023/09/21 07:45:03;;;;;;;;;;;19.70;99.90;;;;;;7317791;19;9525;-74
2023/09/21 07:47:54;;;;;;;;;;;19.70;99.90;;;;;;7318332;19;9272;-74
2023/09/21 07:50:26;;;;;;;;;;;19.90;99.90;;;;;;7318105;19;9309;-74
2023/09/21 07:52:58;;;;;;;;;;;19.90;99.90;;;;;;7318598;19;9232;-74
2023/09/21 07:55:27;;;;;;;;;;;19.90;99.90;;;;;;7318463;19;9315;-74
2023/09/21 07:57:59;;;;;;;;;;;20.00;99.90;;;;;;7319555;19;9235;-74
2023/09/21 08:00:48;;;;;;;;;;;20.00;99.90;;;;;;7318474;19;10211;-74
2023/09/21 08:03:17;;;;;;;;;;;20.10;99.90;;;;;;7315790;19;9478;-73
2023/09/21 08:05:47;;;;;;;;;;;20.10;99.90;;;;;;7317687;19;9332;-74
2023/09/21 08:08:17;;;;;;;;;;;20.10;99.90;;;;;;7321009;19;9119;-74
2023/09/21 08:10:46;;;;;;;;;;;20.10;99.90;;;;;;7318146;19;9316;-74
2023/09/21 08:13:17;;;;;;;;;;;20.10;99.90;;;;;;7319813;19;9273;-74
2023/09/21 08:15:46;;;;;;;;;;;20.20;99.90;;;;;;7319386;19;9386;-74
2023/09/21 08:18:36;;;;;;;;;;;20.20;99.90;;;;;;7317361;19;9224;-74
2023/09/21 08:21:05;;;;;;;;;;;20.30;99.90;;;;;;7320724;19;9303;-74
2023/09/21 08:23:34;;;;;;;;;;;20.30;99.90;;;;;;7319828;19;9524;-74
2023/09/21 08:26:03;;;;;;;;;;;20.40;99.90;;;;;;7319730;19;9311;-74
2023/09/21 08:28:35;;;;;;;;;;;20.50;99.90;;;;;;7315567;19;9489;-74
2023/09/21 08:31:04;;;;;;;;;;;20.50;99.90;;;;;;7316953;19;9274;-74
2023/09/21 08:33:53;;;;;;;;;;;20.60;99.90;;;;;;7308144;19;9590;-74
2023/09/21 08:36:21;;;;;;;;;;;20.70;99.90;;;;;;7315881;19;9077;-75
2023/09/21 08:38:50;;;;;;;;;;;20.70;99.90;;;;;;7315643;19;9273;-74
2023/09/21 08:41:49;;;;;;;;;;;20.70;99.90;;;;;;7319747;19;9671;-74
2023/09/21 08:44:21;;;;;;;;;;;20.50;99.90;;;;;;7323243;19;9305;-74
2023/09/21 08:46:51;;;;;;;;;;;20.50;99.90;;;;;;7322034;19;9380;-75
2023/09/21 08:49:21;;;;;;;;;;;20.50;99.90;;;;;;7324311;19;9311;-75
2023/09/21 08:51:56;;;;;;;;;;;20.50;99.90;;;;;;7326348;19;10615;-75
2023/09/21 08:54:26;;;;;;;;;;;20.40;99.90;;;;;;7324689;19;9336;-75
2023/09/21 08:56:56;;;;;;;;;;;20.40;99.90;;;;;;7325875;19;9145;-75
2023/09/21 08:59:27;;;;;;;;;;;20.60;99.90;;;;;;7324454;19;9237;-75
2023/09/21 09:02:17;;;;;;;;;;;20.60;99.90;;;;;;7321196;19;9182;-74
2023/09/21 09:04:46;;;;;;;;;;;20.60;99.90;;;;;;7322484;19;9229;-75
2023/09/21 09:07:15;;;;;;;;;;;20.60;99.90;;;;;;7324620;19;9159;-74
2023/09/21 09:09:44;;;;;;;;;;;20.60;99.90;;;;;;7324902;19;9111;-74
2023/09/21 09:12:31;;;;;;;;;;;20.60;99.90;;;;;;7325185;19;9109;-74
2023/09/21 09:15:05;;;;;;;;;;;20.50;99.90;;;;;;7323379;19;9324;-74
2023/09/21 09:17:35;;;;;;;;;;;20.50;99.90;;;;;;7324296;19;9310;-74
2023/09/21 09:20:05;;;;;;;;;;;20.50;99.90;;;;;;7324384;19;9234;-75
2023/09/21 09:22:35;;;;;;;;;;;20.50;99.90;;;;;;7325075;19;9454;-74
2023/09/21 09:25:25;;;;;;;;;;;20.50;99.90;;;;;;7318715;19;9345;-74
2023/09/21 09:27:54;;;;;;;;;;;20.40;99.90;;;;;;7324615;19;9123;-74
2023/09/21 09:30:28;;;;;;;;;;;20.50;99.90;;;;;;7324842;19;9270;-75
2023/09/21 09:33:19;;;;;;;;;;;20.50;99.90;;;;;;7316571;19;10470;-74
2023/09/21 09:36:09;;;;;;;;;;;20.40;99.90;;;;;;7321097;19;9279;-74
2023/09/21 09:38:59;;;;;;;;;;;20.40;99.90;;;;;;7322219;19;9557;-74
2023/09/21 09:41:30;;;;;;;;;;;20.40;99.90;;;;;;7323534;19;9272;-74
2023/09/21 09:44:05;;;;;;;;;;;20.40;99.90;;;;;;7321131;19;9257;-74
2023/09/21 09:46:37;;;;;;;;;;;20.30;99.90;;;;;;7324576;19;9175;-74
2023/09/21 09:49:08;;;;;;;;;;;20.30;99.90;;;;;;7324062;19;9208;-74
2023/09/21 09:51:44;;;;;;;;;;;20.20;99.90;;;;;;7323753;19;9168;-74
2023/09/21 09:54:16;;;;;;;;;;;20.10;99.90;;;;;;7323696;19;9502;-74
2023/09/21 09:56:45;;;;;;;;;;;20.10;99.90;;;;;;7321513;19;9313;-74
2023/09/21 09:59:15;;;;;;;;;;;20.00;99.90;;;;;;7323287;19;9448;-74
2023/09/21 10:01:47;;;;;;;;;;;20.00;99.90;;;;;;7324318;19;10571;-74
2023/09/21 10:04:19;;;;;;;;;;;19.80;99.90;;;;;;7315398;19;9445;-74
2023/09/21 10:06:50;;;;;;;;;;;19.80;99.90;;;;;;7319119;19;9390;-74
2023/09/21 10:09:39;;;;;;;;;;;19.70;99.90;;;;;;7312633;19;9238;-77
2023/09/21 10:12:29;;;;;;;;;;;19.70;99.90;;;;;;7319854;19;9246;-77
2023/09/21 10:15:22;;;;;;;;;;;19.70;99.90;;;;;;7320309;19;9517;-77
2023/09/21 10:18:14;;;;;;;;;;;19.70;99.90;;;;;;7319426;19;9253;-75
2023/09/21 10:20:44;;;;;;;;;;;19.70;99.90;;;;;;7307557;19;9182;-76
2023/09/21 10:23:18;;;;;;;;;;;19.70;99.90;;;;;;7310449;19;9307;-76
2023/09/21 10:26:08;;;;;;;;;;;19.70;99.90;;;;;;7317116;19;10403;-76
2023/09/21 10:28:40;;;;;;;;;;;19.70;99.90;;;;;;7320741;19;9297;-76
2023/09/21 10:31:25;;;;;;;;;;;19.70;99.90;;;;;;7307994;19;10233;-76
2023/09/21 10:34:21;;;;;;;;;;;19.70;99.90;;;;;;7315255;19;9281;-76
2023/09/21 10:37:10;;;;;;;;;;;19.70;99.90;;;;;;7320000;19;9561;-76
2023/09/21 10:40:02;;;;;;;;;;;19.60;99.90;;;;;;7321062;19;9291;-77
2023/09/21 10:42:33;;;;;;;;;;;19.60;99.90;;;;;;7321870;19;9402;-76
2023/09/21 10:45:07;;;;;;;;;;;19.60;99.90;;;;;;7317417;19;9550;-79
2023/09/21 10:47:56;;;;;;;;;;;19.50;99.90;;;;;;7321027;19;9266;-78
2023/09/21 10:50:50;;;;;;;;;;;19.50;99.90;;;;;;7318967;19;10490;-79
2023/09/21 10:53:23;;;;;;;;;;;19.40;99.90;;;;;;7320082;19;9364;-79
2023/09/21 10:55:53;;;;;;;;;;;19.40;99.90;;;;;;7318153;19;9398;-78
2023/09/21 10:58:24;;;;;;;;;;;19.40;99.90;;;;;;7320272;19;9306;-78
2023/09/21 11:00:53;;;;;;;;;;;19.40;99.90;;;;;;7318330;19;9279;-77
2023/09/21 11:03:46;;;;;;;;;;;19.40;99.90;;;;;;7314914;19;9231;-76
2023/09/21 11:06:19;;;;;;;;;;;19.30;99.90;;;;;;7320302;19;9276;-77
2023/09/21 11:08:48;;;;;;;;;;;19.30;99.90;;;;;;7321596;19;8996;-77
2023/09/21 11:11:37;;;;;;;;;;;19.30;99.90;;;;;;7317918;19;9306;-78
2023/09/21 11:14:07;;;;;;;;;;;19.30;99.90;;;;;;7322111;19;10365;-78
2023/09/21 11:16:36;;;;;;;;;;;19.30;99.90;;;;;;7320192;19;9213;-79
2023/09/21 11:19:09;;;;;;;;;;;19.40;99.90;;;;;;7321222;19;9556;-79
2023/09/21 11:21:42;;;;;;;;;;;19.40;99.90;;;;;;7320653;19;9285;-79
2023/09/21 11:24:12;;;;;;;;;;;19.40;99.90;;;;;;7319078;19;9636;-78
2023/09/21 11:26:49;;;;;;;;;;;19.40;99.90;;;;;;7318741;19;10271;-78
2023/09/21 11:29:41;;;;;;;;;;;19.40;99.90;;;;;;7316028;19;9266;-76
2023/09/21 11:32:11;;;;;;;;;;;19.40;99.90;;;;;;7317173;19;9469;-76
2023/09/21 11:34:41;;;;;;;;;;;19.40;99.90;;;;;;7317584;19;9624;-77
2023/09/21 11:37:15;;;;;;;;;;;19.40;99.90;;;;;;7317998;19;9314;-76
2023/09/21 11:39:49;;;;;;;;;;;19.30;99.90;;;;;;7313671;19;9328;-76
2023/09/21 11:42:21;;;;;;;;;;;19.30;99.90;;;;;;7314588;19;8997;-77
2023/09/21 11:45:16;;;;;;;;;;;19.10;99.90;;;;;;7314526;19;9548;-76
2023/09/21 11:48:06;;;;;;;;;;;18.80;99.90;;;;;;7316322;19;9344;-77
2023/09/21 11:50:38;;;;;;;;;;;18.40;99.90;;;;;;7316800;19;9488;-77
2023/09/21 11:53:09;;;;;;;;;;;18.20;99.90;;;;;;7318761;19;9118;-77
2023/09/21 11:55:58;;;;;;;;;;;18.10;99.90;;;;;;7315953;19;9505;-77
2023/09/21 11:58:33;;;;;;;;;;;18.00;99.90;;;;;;7319593;19;9385;-76
2023/09/21 12:01:22;;;;;;;;;;;17.90;99.90;;;;;;7318642;19;9213;-76
2023/09/21 12:03:52;;;;;;;;;;;17.90;99.90;;;;;;7313989;19;9408;-76
2023/09/21 12:06:21;;;;;;;;;;;18.00;99.90;;;;;;7315497;19;9283;-76
2023/09/21 12:08:53;;;;;;;;;;;18.10;99.90;;;;;;7313042;19;9499;-77
2023/09/21 12:11:22;;;;;;;;;;;18.10;99.90;;;;;;7314696;19;9249;-76
2023/09/21 12:14:12;;;;;;;;;;;18.20;99.90;;;;;;7316152;19;9229;-76
2023/09/21 12:16:40;;;;;;;;;;;18.30;99.90;;;;;;7323343;19;9293;-76
2023/09/21 12:19:30;;;;;;;;;;;18.40;99.90;;;;;;7319915;19;9564;-76
2023/09/21 12:21:59;;;;;;;;;;;18.50;99.90;;;;;;7319547;19;9368;-77
2023/09/21 12:24:31;;;;;;;;;;;18.60;99.90;;;;;;7323250;19;9340;-77
2023/09/21 12:27:00;;;;;;;;;;;18.60;99.90;;;;;;7323353;19;9547;-76
2023/09/21 12:29:52;;;;;;;;;;;18.50;99.90;;;;;;7322790;19;9512;-77
2023/09/21 12:32:21;;;;;;;;;;;18.70;99.90;;;;;;7322718;19;9338;-77
2023/09/21 12:34:51;;;;;;;;;;;18.80;99.90;;;;;;7323831;19;9225;-77
2023/09/21 12:37:21;;;;;;;;;;;18.90;99.90;;;;;;7319528;19;9479;-76
2023/09/21 12:39:52;;;;;;;;;;;19.00;99.90;;;;;;7322644;19;9296;-76
2023/09/21 12:42:21;;;;;;;;;;;18.90;99.90;;;;;;7323336;19;9120;-77
2023/09/21 12:44:50;;;;;;;;;;;19.00;99.90;;;;;;7326523;19;9228;-76
2023/09/21 12:47:40;;;;;;;;;;;19.00;99.90;;;;;;7318394;19;9357;-77
2023/09/21 12:50:10;;;;;;;;;;;18.90;99.90;;;;;;7324286;19;9642;-77
2023/09/21 12:52:42;;;;;;;;;;;18.70;99.90;;;;;;7323698;19;9226;-77
2023/09/21 12:55:15;;;;;;;;;;;18.50;99.90;;;;;;7325263;19;9560;-77
2023/09/21 12:57:43;;;;;;;;;;;18.50;99.90;;;;;;7322892;19;10954;-77
2023/09/21 13:00:17;;;;;;;;;;;18.50;99.90;;;;;;7323784;19;9346;-77
2023/09/21 13:03:07;;;;;;;;;;;18.40;99.90;;;;;;7321834;19;9325;-76
2023/09/21 13:05:56;;;;;;;;;;;18.40;99.90;;;;;;7322962;19;9178;-77
2023/09/21 13:08:25;;;;;;;;;;;18.10;99.90;;;;;;7326262;19;9187;-77
2023/09/21 13:10:57;;;;;;;;;;;18.10;99.90;;;;;;7325107;19;9261;-77
2023/09/21 13:13:46;;;;;;;;;;;18.00;99.90;;;;;;7319684;19;9488;-77
2023/09/21 13:16:35;;;;;;;;;;;17.80;99.90;;;;;;7321898;19;8998;-77
2023/09/21 13:19:04;;;;;;;;;;;17.70;99.90;;;;;;7324527;19;10731;-77
2023/09/21 13:21:33;;;;;;;;;;;17.70;99.90;;;;;;7321949;19;9254;-77
2023/09/21 13:24:02;;;;;;;;;;;17.70;99.90;;;;;;7322067;19;9226;-77
2023/09/21 13:26:35;;;;;;;;;;;17.60;99.90;;;;;;7324000;19;9518;-78
2023/09/21 13:29:23;;;;;;;;;;;17.50;99.90;;;;;;7324021;19;9315;-77
2023/09/21 13:31:54;;;;;;;;;;;17.50;99.90;;;;;;7325184;19;9354;-77
2023/09/21 13:34:24;;;;;;;;;;;17.40;99.90;;;;;;7319229;19;9314;-77
2023/09/21 13:36:53;;;;;;;;;;;17.30;99.90;;;;;;7322232;19;9278;-77
2023/09/21 13:39:22;;;;;;;;;;;17.30;99.90;;;;;;7322938;19;9238;-77
2023/09/21 13:41:56;;;;;;;;;;;17.40;99.90;;;;;;7318779;19;9309;-77
2023/09/21 13:44:26;;;;;;;;;;;17.50;99.90;;;;;;7321795;19;9243;-77
2023/09/21 13:47:15;;;;;;;;;;;17.60;99.90;;;;;;7316759;19;9576;-77
2023/09/21 13:49:44;;;;;;;;;;;17.80;99.90;;;;;;7319579;19;9315;-77
2023/09/21 13:52:15;;;;;;;;;;;17.70;99.90;;;;;;7321764;19;9497;-77
2023/09/21 13:54:46;;;;;;;;;;;17.80;99.90;;;;;;7322732;19;9163;-77
2023/09/21 13:57:18;;;;;;;;;;;17.80;99.90;;;;;;7318337;19;9239;-77
2023/09/21 13:59:47;;;;;;;;;;;17.80;99.90;;;;;;7322018;19;9457;-77
2023/09/21 14:02:17;;;;;;;;;;;17.90;99.90;;;;;;7321876;19;9226;-76
2023/09/21 14:04:46;;;;;;;;;;;18.00;99.90;;;;;;7321043;19;10537;-77
2023/09/21 14:07:15;;;;;;;;;;;18.10;99.90;;;;;;7321555;19;9214;-77
2023/09/21 14:09:44;;;;;;;;;;;18.20;99.90;;;;;;7324334;19;9229;-77
2023/09/21 14:12:36;;;;;;;;;;;18.00;99.90;;;;;;7321846;19;9451;-77
2023/09/21 14:15:05;;;;;;;;;;;17.80;99.90;;;;;;7321149;19;10506;-77
2023/09/21 14:17:35;;;;;;;;;;;17.60;99.90;;;;;;7323112;19;9265;-77
2023/09/21 14:20:04;;;;;;;;;;;17.50;99.90;;;;;;7321731;19;9287;-77
2023/09/21 14:22:53;;;;;;;;;;;17.60;99.90;;;;;;7322565;19;9322;-77
2023/09/21 14:25:22;;;;;;;;;;;17.60;99.90;;;;;;7321585;19;9178;-77
2023/09/21 14:28:14;;;;;;;;;;;17.60;99.90;;;;;;7321107;19;9434;-77
2023/09/21 14:30:43;;;;;;;;;;;17.50;99.90;;;;;;7323138;19;9480;-77
2023/09/21 14:33:11;;;;;;;;;;;17.50;99.90;;;;;;7320313;19;9358;-77
2023/09/21 14:36:00;;;;;;;;;;;17.40;99.90;;;;;;7320024;19;9237;-77
2023/09/21 14:38:49;;;;;;;;;;;17.30;99.90;;;;;;7319414;19;9438;-78
2023/09/21 14:41:18;;;;;;;;;;;17.30;99.90;;;;;;7322343;19;9527;-77
2023/09/21 14:44:10;;;;;;;;;;;17.30;99.90;;;;;;7320966;19;9257;-77
2023/09/21 14:46:39;;;;;;;;;;;17.20;99.90;;;;;;7321837;19;9178;-77
2023/09/21 14:49:08;;;;;;;;;;;17.20;99.90;;;;;;7320065;19;9231;-77
2023/09/21 14:51:37;;;;;;;;;;;17.20;99.90;;;;;;7321138;19;9155;-77
2023/09/21 14:54:07;;;;;;;;;;;17.10;99.90;;;;;;7321408;19;9003;-76
2023/09/21 14:56:36;;;;;;;;;;;17.00;99.90;;;;;;7322532;19;9210;-77
2023/09/21 14:59:28;;;;;;;;;;;16.90;99.90;;;;;;7320084;19;9249;-77
2023/09/21 15:01:57;;;;;;;;;;;16.90;99.90;;;;;;7322750;19;10282;-76
2023/09/21 15:04:27;;;;;;;;;;;16.90;99.90;;;;;;7319641;19;9181;-74
2023/09/21 15:06:56;;;;;;;;;;;16.80;99.90;;;;;;7315738;19;9162;-77
2023/09/21 15:09:25;;;;;;;;;;;16.80;99.90;;;;;;7319099;19;10201;-77
2023/09/21 15:11:54;;;;;;;;;;;16.80;99.90;;;;;;7317646;19;9250;-77
2023/09/21 15:14:23;;;;;;;;;;;16.70;99.90;;;;;;7317487;19;9302;-77
2023/09/21 15:16:55;;;;;;;;;;;16.70;99.90;;;;;;7295567;19;9651;-77
2023/09/21 15:19:25;;;;;;;;;;;16.70;99.90;;;;;;7314956;19;9191;-90
2023/09/21 15:22:16;;;;;;;;;;;16.70;99.90;;;;;;7315835;19;9250;-72